Time;durP1;ratioP1;P1;durP2;ratioP2;P2;SDS_P1;SDS_P2;PMS_P1;PMS_P2;Temp;Humidity;BMP_temperature;BMP_pressure;BME280_temperature;BME280_humidity;BME280_pressure;Samples;Min_cycle;Max_cycle;Signal;HPM_P1;HPM_P2
2023/03/11 00:01:08;;;;;;;15.60;11.70;;;;;;;-0.39;100.00;99177.33;106610;1260;69663;-75
2023/03/11 00:03:41;;;;;;;15.80;11.20;;;;;;;-0.39;100.00;99180.43;107058;1262;72476;-75
2023/03/11 00:06:10;;;;;;;16.10;12.00;;;;;;;-0.40;100.00;99179.12;106698;1261;61357;-73
2023/03/11 00:08:41;;;;;;;15.90;11.10;;;;;;;-0.40;100.00;99194.19;106892;1259;61319;-75
2023/03/11 00:11:08;;;;;;;15.90;11.70;;;;;;;-0.39;100.00;99197.33;106888;1260;75875;-75
2023/03/11 00:13:39;;;;;;;17.30;12.20;;;;;;;-0.39;100.00;99200.98;106677;1260;69692;-74
2023/03/11 00:16:07;;;;;;;17.50;11.90;;;;;;;-0.38;100.00;99215.96;107360;1262;72740;-74
2023/03/11 00:19:14;;;;;;;15.20;11.20;;;;;;;-0.41;100.00;99228.59;106667;1262;61347;-74
2023/03/11 00:21:50;;;;;;;13.60;9.70;;;;;;;-0.45;100.00;99228.36;107101;1259;61836;-73
2023/03/11 00:24:26;;;;;;;19.60;13.60;;;;;;;-0.43;100.00;99226.12;108545;1260;74370;-72
2023/03/11 00:26:56;;;;;;;17.50;11.90;;;;;;;-0.43;100.00;99240.38;108044;1260;70957;-71
2023/03/11 00:29:37;;;;;;;16.10;11.20;;;;;;;-0.42;100.00;99246.88;107655;1262;72529;-72
2023/03/11 00:32:04;;;;;;;15.90;11.40;;;;;;;-0.42;100.00;99245.26;107946;1259;59103;-72
2023/03/11 00:34:31;;;;;;;14.00;10.10;;;;;;;-0.40;100.00;99260.29;107068;1260;60937;-73
2023/03/11 00:36:58;;;;;;;17.40;11.70;;;;;;;-0.41;100.00;99255.08;107151;1259;74086;-73
2023/03/11 00:39:28;;;;;;;16.80;12.10;;;;;;;-0.40;100.00;99259.91;107105;1259;71673;-74
2023/03/11 00:42:02;;;;;;;16.30;11.70;;;;;;;-0.40;100.00;99271.34;106607;1259;71239;-74
2023/03/11 00:44:32;;;;;;;16.90;12.20;;;;;;;-0.39;100.00;99277.35;106998;1260;61229;-73
2023/03/11 00:46:59;;;;;;;16.30;11.70;;;;;;;-0.37;100.00;99280.30;108028;1259;61151;-73
2023/03/11 00:49:26;;;;;;;17.30;11.80;;;;;;;-0.38;100.00;99289.58;108659;1259;73381;-73
2023/03/11 00:51:53;;;;;;;15.60;11.40;;;;;;;-0.37;100.00;99288.17;107920;1261;71108;-73
2023/03/11 00:54:21;;;;;;;18.80;13.10;;;;;;;-0.36;100.00;99293.96;107337;1260;71373;-73
2023/03/11 00:56:55;;;;;;;18.10;11.60;;;;;;;-0.35;100.00;99307.06;108690;1259;60874;-73
2023/03/11 00:59:32;;;;;;;17.20;11.70;;;;;;;-0.34;100.00;99306.11;107295;1260;61174;-73
2023/03/11 01:02:04;;;;;;;16.70;11.50;;;;;;;-0.31;100.00;99308.30;106811;1259;74436;-73
2023/03/11 01:04:56;;;;;;;15.70;11.50;;;;;;;-0.31;100.00;99307.86;106763;1259;71004;-72
2023/03/11 01:07:23;;;;;;;14.40;10.10;;;;;;;-0.29;100.00;99304.27;107003;1259;71527;-74
2023/03/11 01:09:53;;;;;;;13.80;9.90;;;;;;;-0.28;100.00;99307.12;106717;1259;61279;-74
2023/03/11 01:12:39;;;;;;;12.80;9.70;;;;;;;-0.28;100.00;99311.44;106836;1259;59676;-73
2023/03/11 01:15:29;;;;;;;13.20;8.80;;;;;;;-0.27;100.00;99314.30;106825;1262;74422;-73
2023/03/11 01:18:03;;;;;;;12.30;9.00;;;;;;;-0.29;100.00;99339.20;106698;1262;69289;-74
2023/03/11 01:20:30;;;;;;;9.70;7.00;;;;;;;-0.32;100.00;99342.03;107742;1260;73719;-74
2023/03/11 01:23:05;;;;;;;10.50;7.40;;;;;;;-0.34;100.00;99349.86;108607;1259;59679;-74
2023/03/11 01:25:32;;;;;;;7.80;5.60;;;;;;;-0.33;100.00;99361.98;108524;1259;60600;-74
2023/03/11 01:27:59;;;;;;;8.70;6.70;;;;;;;-0.36;100.00;99361.89;108405;1259;72163;-72
2023/03/11 01:30:29;;;;;;;8.00;5.80;;;;;;;-0.33;100.00;99365.58;108678;1259;73632;-72
2023/03/11 01:32:57;;;;;;;6.60;5.20;;;;;;;-0.37;100.00;99363.14;108257;1260;71280;-73
2023/03/11 01:35:56;;;;;;;;;;;;;;;;;;;;;
2023/03/11 01:38:24;;;;;;;7.20;5.20;;;;;;;-0.36;100.00;99376.48;106924;1259;61146;-73
2023/03/11 01:40:51;;;;;;;7.40;5.50;;;;;;;-0.35;100.00;99384.70;106918;1261;73347;-73
2023/03/11 01:43:53;;;;;;;7.00;4.60;;;;;;;-0.35;100.00;99384.34;106737;1260;70404;-73
2023/03/11 01:46:23;;;;;;;8.30;5.50;;;;;;;-0.38;100.00;99402.15;106828;1259;71543;-72
2023/03/11 01:48:55;;;;;;;7.60;5.10;;;;;;;-0.37;100.00;99403.13;107205;1259;61624;-72
2023/03/11 01:51:45;;;;;;;7.00;4.10;;;;;;;-0.37;100.00;99407.67;107541;1265;61293;-74
2023/03/11 01:54:37;;;;;;;6.00;4.10;;;;;;;-0.37;100.00;99405.53;106788;1262;74523;-73
2023/03/11 01:57:08;;;;;;;7.80;4.60;;;;;;;-0.36;100.00;99420.45;106986;1259;70943;-74
2023/03/11 01:59:40;;;;;;;5.60;4.10;;;;;;;-0.35;100.00;99420.81;106916;1260;70742;-73
2023/03/11 02:02:39;;;;;;;4.40;2.80;;;;;;;-0.37;100.00;99430.41;106692;1260;61277;-73
2023/03/11 02:05:07;;;;;;;7.20;3.90;;;;;;;-0.39;100.00;99433.15;107020;1260;61267;-73
2023/03/11 02:07:48;;;;;;;5.30;3.80;;;;;;;-0.39;100.00;99438.68;106988;1259;73261;-72
2023/03/11 02:10:19;;;;;;;6.00;3.50;;;;;;;-0.41;100.00;99450.89;107014;1259;72254;-72
2023/03/11 02:12:49;;;;;;;4.50;3.00;;;;;;;-0.43;100.00;99448.45;106815;1261;70593;-72
2023/03/11 02:15:19;;;;;;;7.30;4.10;;;;;;;-0.45;100.00;99452.76;106838;1259;61836;-74
2023/03/11 02:17:46;;;;;;;6.00;4.40;;;;;;;-0.45;100.00;99456.27;106677;1259;61244;-72
2023/03/11 02:20:37;;;;;;;6.00;4.10;;;;;;;-0.48;100.00;99468.98;106939;1259;72395;-74
2023/03/11 02:23:08;;;;;;;5.70;3.90;;;;;;;-0.47;100.00;99469.99;106682;1262;70926;-75
2023/03/11 02:26:04;;;;;;;7.80;4.40;;;;;;;-0.46;100.00;99469.02;106585;1260;71154;-73
2023/03/11 02:28:37;;;;;;;6.00;3.80;;;;;;;-0.47;100.00;99472.93;106975;1266;59756;-73
2023/03/11 02:31:05;;;;;;;5.90;3.60;;;;;;;-0.49;100.00;99468.59;106797;1260;61257;-73
2023/03/11 02:33:36;;;;;;;7.70;3.90;;;;;;;-0.46;100.00;99469.88;106811;1259;73461;-73
2023/03/11 02:36:03;;;;;;;6.20;4.10;;;;;;;-0.44;100.00;99479.27;106841;1259;71318;-73
2023/03/11 02:38:30;;;;;;;5.40;3.90;;;;;;;-0.45;100.00;99479.73;106534;1260;72663;-73
2023/03/11 02:41:01;;;;;;;4.70;3.50;;;;;;;-0.48;100.00;99485.73;106743;1260;61296;-73
2023/03/11 02:43:44;;;;;;;7.30;4.10;;;;;;;-0.49;100.00;99484.39;106660;1259;61707;-73
2023/03/11 02:46:14;;;;;;;6.70;4.20;;;;;;;-0.48;100.00;99480.14;106791;1262;74442;-72
2023/03/11 02:48:43;;;;;;;5.10;3.50;;;;;;;-0.48;100.00;99486.73;107097;1259;71420;-73
2023/03/11 02:51:11;;;;;;;5.20;4.10;;;;;;;-0.47;100.00;99487.54;106508;1260;72502;-73
2023/03/11 02:53:51;;;;;;;6.30;3.70;;;;;;;-0.47;100.00;99497.20;106789;1260;61274;-72
2023/03/11 02:56:19;;;;;;;6.50;4.70;;;;;;;-0.48;100.00;99496.59;106533;1260;61370;-73
2023/03/11 02:58:47;;;;;;;8.00;5.20;;;;;;;-0.48;100.00;99507.02;107091;1259;74700;-72
2023/03/11 03:01:16;;;;;;;6.40;4.20;;;;;;;-0.48;100.00;99508.45;106752;1260;71049;-74
2023/03/11 03:03:43;;;;;;;5.10;3.70;;;;;;;-0.49;100.00;99509.79;106568;1260;72362;-73
2023/03/11 03:06:11;;;;;;;7.30;4.50;;;;;;;-0.49;100.00;99516.39;106652;1261;61115;-72
2023/03/11 03:08:48;;;;;;;5.80;3.90;;;;;;;-0.45;100.00;99524.70;107125;1260;61248;-73
2023/03/11 03:11:15;;;;;;;7.10;4.50;;;;;;;-0.45;100.00;99516.52;106733;1259;75215;-74
2023/03/11 03:13:42;;;;;;;6.90;4.20;;;;;;;-0.45;100.00;99529.38;106412;1265;70938;-73
2023/03/11 03:16:09;;;;;;;5.50;3.90;;;;;;;-0.48;100.00;99533.48;106556;1259;71186;-73
2023/03/11 03:18:37;;;;;;;6.30;3.80;;;;;;;-0.50;100.00;99532.43;106656;1259;61246;-73
2023/03/11 03:21:07;;;;;;;7.10;4.20;;;;;;;-0.48;100.00;99533.09;106498;1259;61733;-73
2023/03/11 03:23:37;;;;;;;6.80;3.90;;;;;;;-0.46;100.00;99534.50;106558;1262;74774;-74
2023/03/11 03:26:05;;;;;;;7.70;4.70;;;;;;;-0.46;100.00;99538.17;106622;1260;72174;-74
2023/03/11 03:28:39;;;;;;;6.40;4.10;;;;;;;-0.46;100.00;99548.10;107179;1261;71809;-73
2023/03/11 03:31:26;;;;;;;6.80;4.10;;;;;;;-0.46;100.00;99557.09;106662;1259;61174;-72
2023/03/11 03:33:56;;;;;;;7.70;4.40;;;;;;;-0.45;100.00;99550.20;106612;1259;61271;-72
2023/03/11 03:36:26;;;;;;;9.90;4.40;;;;;;;-0.45;100.00;99551.97;106599;1265;74724;-74
2023/03/11 03:38:54;;;;;;;6.70;4.30;;;;;;;-0.44;100.00;99562.08;106956;1260;69338;-72
2023/03/11 03:41:22;;;;;;;7.50;5.00;;;;;;;-0.42;100.00;99563.52;106789;1259;72635;-74
2023/03/11 03:43:49;;;;;;;10.60;4.90;;;;;;;-0.40;100.00;99563.71;106840;1266;61366;-73
2023/03/11 03:46:16;;;;;;;9.20;5.10;;;;;;;-0.37;100.00;99570.23;107632;1259;61399;-72
2023/03/11 03:48:43;;;;;;;5.80;3.80;;;;;;;-0.37;100.00;99579.80;108627;1262;74436;-71
2023/03/11 03:51:12;;;;;;;8.40;4.40;;;;;;;-0.40;100.00;99585.02;108551;1261;71230;-72
2023/03/11 03:53:45;;;;;;;7.50;4.00;;;;;;;-0.35;100.00;99589.36;107229;1262;71280;-73
2023/03/11 03:56:14;;;;;;;6.10;4.10;;;;;;;-0.34;100.00;99600.88;107025;1259;61330;-74
2023/03/11 03:58:41;;;;;;;7.20;4.20;;;;;;;-0.36;100.00;99599.98;107330;1259;61299;-72
2023/03/11 04:01:09;;;;;;;10.40;4.50;;;;;;;-0.36;100.00;99605.73;106930;1259;74506;-72
2023/03/11 04:03:41;;;;;;;8.20;3.60;;;;;;;-0.37;100.00;99615.06;106617;1259;72365;-71
2023/03/11 04:06:21;;;;;;;8.00;4.40;;;;;;;-0.37;100.00;99614.71;106713;1259;71144;-73
2023/03/11 04:08:53;;;;;;;8.30;4.60;;;;;;;-0.38;100.00;99617.25;106514;1260;61251;-73
2023/03/11 04:11:21;;;;;;;10.10;4.20;;;;;;;-0.42;100.00;99621.36;106581;1266;61135;-73
2023/03/11 04:13:48;;;;;;;7.00;4.00;;;;;;;-0.43;100.00;99629.94;106979;1259;73405;-73
2023/03/11 04:16:21;;;;;;;16.30;5.00;;;;;;;-0.48;100.00;99648.09;106737;1260;70594;-73
2023/03/11 04:18:50;;;;;;;27.70;6.00;;;;;;;-0.52;100.00;99643.53;106409;1260;72337;-74
2023/03/11 04:21:18;;;;;;;23.00;5.70;;;;;;;-0.49;100.00;99636.86;106974;1260;61278;-73
2023/03/11 04:23:45;;;;;;;13.90;4.60;;;;;;;-0.51;100.00;99642.95;106962;1259;61305;-73
2023/03/11 04:26:12;;;;;;;13.50;4.40;;;;;;;-0.50;100.00;99642.02;106819;1265;75862;-73
2023/03/11 04:28:39;;;;;;;21.00;5.40;;;;;;;-0.49;100.00;99642.48;106692;1259;69682;-72
2023/03/11 04:31:08;;;;;;;20.90;4.90;;;;;;;-0.51;100.00;99651.87;106470;1260;71231;-73
2023/03/11 04:33:38;;;;;;;12.60;4.30;;;;;;;-0.52;100.00;99643.23;106976;1262;60006;-72
2023/03/11 04:36:06;;;;;;;16.50;6.00;;;;;;;-0.55;100.00;99642.05;106980;1259;61351;-72
2023/03/11 04:38:54;;;;;;;15.20;4.60;;;;;;;-0.56;100.00;99644.91;106794;1259;73106;-73
2023/03/11 04:41:22;;;;;;;10.60;4.10;;;;;;;-0.53;100.00;99644.19;107026;1259;70155;-71
2023/03/11 04:43:49;;;;;;;9.70;4.00;;;;;;;-0.56;100.00;99652.39;106696;1259;72439;-71
2023/03/11 04:46:16;;;;;;;8.90;3.40;;;;;;;-0.56;100.00;99649.66;106891;1259;61184;-72
2023/03/11 04:48:44;;;;;;;9.30;3.60;;;;;;;-0.56;100.00;99654.37;106709;1260;60260;-72
2023/03/11 04:51:11;;;;;;;7.60;3.60;;;;;;;-0.57;100.00;99652.68;107044;1260;73485;-73
2023/03/11 04:53:38;;;;;;;9.00;3.50;;;;;;;-0.58;100.00;99666.70;106891;1259;69676;-72
2023/03/11 04:56:05;;;;;;;6.20;3.10;;;;;;;-0.61;100.00;99668.30;106738;1260;73747;-73
2023/03/11 04:58:39;;;;;;;6.40;3.20;;;;;;;-0.63;100.00;99677.98;106753;1260;61365;-73
2023/03/11 05:01:06;;;;;;;7.00;3.20;;;;;;;-0.65;100.00;99690.67;106822;1259;61367;-73
2023/03/11 05:03:33;;;;;;;5.70;2.60;;;;;;;-0.67;100.00;99687.67;106737;1259;75041;-73
2023/03/11 05:06:00;;;;;;;6.20;2.90;;;;;;;-0.70;100.00;99693.16;106643;1260;69671;-73
2023/03/11 05:08:28;;;;;;;6.50;2.70;;;;;;;-0.70;100.00;99690.91;106607;1259;72547;-73
2023/03/11 05:10:55;;;;;;;6.30;2.80;;;;;;;-0.70;100.00;99696.31;106791;1260;61121;-71
2023/03/11 05:13:28;;;;;;;7.60;2.70;;;;;;;-0.71;100.00;99703.11;106826;1262;61352;-73
2023/03/11 05:15:55;;;;;;;8.00;2.30;;;;;;;-0.71;100.00;99701.60;106732;1261;73646;-72
2023/03/11 05:18:22;;;;;;;7.30;2.90;;;;;;;-0.75;100.00;99713.58;106498;1261;71225;-72
2023/03/11 05:20:49;;;;;;;7.30;2.20;;;;;;;-0.76;100.00;99711.56;106516;1262;71533;-72
2023/03/11 05:23:16;;;;;;;8.90;2.60;;;;;;;-0.75;100.00;99716.89;106650;1259;62913;-72
2023/03/11 05:25:45;;;;;;;7.20;2.60;;;;;;;-0.76;100.00;99720.08;106561;1261;61798;-72
2023/03/11 05:28:27;;;;;;;6.10;2.30;;;;;;;-0.79;100.00;99728.08;106716;1260;74849;-72
2023/03/11 05:30:54;;;;;;;7.10;2.30;;;;;;;-0.79;100.00;99730.22;106940;1259;70422;-71
2023/03/11 05:33:21;;;;;;;8.10;2.20;;;;;;;-0.79;100.00;99737.73;106774;1260;71508;-72
2023/03/11 05:35:50;;;;;;;6.40;2.00;;;;;;;-0.82;100.00;99747.44;106672;1261;61514;-73
2023/03/11 05:38:17;;;;;;;6.40;2.40;;;;;;;-0.80;100.00;99741.70;106890;1263;60034;-72
2023/03/11 05:40:44;;;;;;;10.70;2.90;;;;;;;-0.78;100.00;99751.98;106821;1263;72512;-73
2023/03/11 05:43:12;;;;;;;6.90;2.60;;;;;;;-0.76;100.00;99753.08;107105;1261;69194;-72
2023/03/11 05:45:39;;;;;;;23.40;4.40;;;;;;;-0.78;100.00;99755.80;107053;1259;72752;-73
2023/03/11 05:48:06;;;;;;;23.80;4.40;;;;;;;-0.76;100.00;99759.15;106956;1259;61881;-73
2023/03/11 05:50:33;;;;;;;15.10;3.00;;;;;;;-0.76;100.00;99763.28;106801;1260;61366;-72
2023/03/11 05:53:00;;;;;;;13.30;2.60;;;;;;;-0.76;100.00;99759.65;106789;1261;72685;-72
2023/03/11 05:55:27;;;;;;;8.00;2.40;;;;;;;-0.74;100.00;99757.20;106674;1259;71233;-71
2023/03/11 05:57:55;;;;;;;5.90;2.20;;;;;;;-0.70;100.00;99759.17;106832;1262;71260;-73
2023/03/11 06:00:22;;;;;;;8.20;2.90;;;;;;;-0.67;100.00;99762.02;106774;1259;61288;-72
2023/03/11 06:02:49;;;;;;;9.40;3.00;;;;;;;-0.68;100.00;99764.51;107268;1260;58886;-72
2023/03/11 06:05:16;;;;;;;7.60;2.80;;;;;;;-0.65;100.00;99769.17;107015;1259;74975;-72
2023/03/11 06:07:46;;;;;;;5.90;2.30;;;;;;;-0.65;100.00;99769.30;106886;1259;70054;-72
2023/03/11 06:10:14;;;;;;;7.30;1.90;;;;;;;-0.63;100.00;99778.00;107223;1261;73437;-72
2023/03/11 06:12:41;;;;;;;5.70;2.10;;;;;;;-0.62;100.00;99783.00;107456;1263;59905;-72
2023/03/11 06:15:11;;;;;;;4.30;1.90;;;;;;;-0.59;100.00;99784.94;107401;1259;61116;-72
2023/03/11 06:17:38;;;;;;;9.30;2.90;;;;;;;-0.59;100.00;99789.51;106927;1259;73411;-73
2023/03/11 06:20:08;;;;;;;9.20;1.80;;;;;;;-0.58;100.00;99793.61;106983;1262;71070;-72
2023/03/11 06:22:35;;;;;;;6.70;2.00;;;;;;;-0.55;100.00;99795.08;107239;1259;71214;-72
2023/03/11 06:25:06;;;;;;;5.10;2.00;;;;;;;-0.49;100.00;99805.56;108341;1262;61108;-73
2023/03/11 06:27:34;;;;;;;6.90;2.40;;;;;;;-0.45;100.00;99810.72;108638;1259;60321;-73
2023/03/11 06:30:01;;;;;;;6.00;2.00;;;;;;;-0.42;100.00;99817.77;108652;1259;74606;-73
2023/03/11 06:32:29;;;;;;;5.00;2.00;;;;;;;-0.41;100.00;99813.38;108729;1260;72056;-73
2023/03/11 06:34:56;;;;;;;6.50;2.00;;;;;;;-0.37;100.00;99813.60;108668;1260;72760;-73
2023/03/11 06:37:24;;;;;;;6.90;2.00;;;;;;;-0.33;100.00;99816.27;108587;1259;60410;-73
2023/03/11 06:39:52;;;;;;;4.80;1.70;;;;;;;-0.31;100.00;99820.02;108229;1260;59503;-73
2023/03/11 06:42:22;;;;;;;5.90;2.00;;;;;;;-0.26;100.00;99831.40;107019;1260;73582;-73
2023/03/11 06:44:49;;;;;;;5.80;1.80;;;;;;;-0.23;100.00;99835.32;106989;1267;70388;-73
2023/03/11 06:47:20;;;;;;;6.10;2.00;;;;;;;-0.22;100.00;99845.88;106837;1260;71144;-73
2023/03/11 06:49:51;;;;;;;4.90;2.10;;;;;;;-0.21;100.00;99849.81;106788;1259;61228;-74
2023/03/11 06:52:18;;;;;;;7.60;2.00;;;;;;;-0.18;100.00;99848.72;106660;1262;62512;-74
2023/03/11 06:54:45;;;;;;;6.00;2.10;;;;;;;-0.21;100.00;99856.92;106921;1261;74340;-74
2023/03/11 06:57:13;;;;;;;6.90;2.20;;;;;;;-0.22;99.85;99864.30;106972;1259;70038;-73
2023/03/11 06:59:40;;;;;;;12.30;3.40;;;;;;;-0.20;99.77;99869.70;106970;1260;71485;-74
2023/03/11 07:02:11;;;;;;;36.30;6.60;;;;;;;-0.19;99.80;99873.48;106947;1262;61739;-75
2023/03/11 07:04:41;;;;;;;43.40;7.80;;;;;;;-0.17;99.75;99876.57;107458;1259;61169;-74
2023/03/11 07:07:08;;;;;;;69.90;13.20;;;;;;;-0.11;99.81;99879.54;107367;1263;74683;-74
2023/03/11 07:09:35;;;;;;;66.60;11.70;;;;;;;-0.08;99.60;99886.45;106899;1265;69081;-74
2023/03/11 07:12:03;;;;;;;53.90;9.80;;;;;;;-0.03;99.31;99889.65;107255;1260;71183;-73
2023/03/11 07:14:32;;;;;;;23.40;5.20;;;;;;;-0.00;99.11;99893.45;106776;1259;61551;-73
2023/03/11 07:16:59;;;;;;;42.30;11.40;;;;;;;0.03;98.82;99903.48;106806;1259;61256;-73
2023/03/11 07:19:28;;;;;;;38.00;12.20;;;;;;;0.07;98.60;99903.85;106760;1263;74961;-74
2023/03/11 07:21:55;;;;;;;19.10;6.90;;;;;;;0.08;98.39;99910.04;106565;1264;70160;-74
2023/03/11 07:24:23;;;;;;;16.30;4.80;;;;;;;0.11;98.42;99916.01;106691;1259;71446;-74
2023/03/11 07:26:50;;;;;;;9.50;3.50;;;;;;;0.14;98.21;99921.33;106989;1259;61176;-74
2023/03/11 07:29:18;;;;;;;11.70;3.50;;;;;;;0.16;98.01;99931.00;106601;1266;62008;-74
2023/03/11 07:31:45;;;;;;;6.30;2.70;;;;;;;0.22;97.66;99933.87;106745;1267;72748;-74
2023/03/11 07:34:12;;;;;;;6.10;2.10;;;;;;;0.23;96.95;99935.52;106946;1259;71814;-74
2023/03/11 07:36:41;;;;;;;6.50;1.80;;;;;;;0.28;96.97;99943.45;106788;1259;71699;-76
2023/03/11 07:39:13;;;;;;;4.20;1.50;;;;;;;0.27;96.00;99948.77;106607;1259;61366;-73
2023/03/11 07:41:41;;;;;;;7.80;1.90;;;;;;;0.30;95.72;99953.05;106446;1260;61360;-75
2023/03/11 07:44:13;;;;;;;4.90;1.90;;;;;;;0.40;96.08;99952.17;107135;1260;75284;-74
2023/03/11 07:46:40;;;;;;;4.40;2.00;;;;;;;0.45;95.90;99960.72;107540;1259;71266;-73
2023/03/11 07:49:10;;;;;;;7.80;2.10;;;;;;;0.52;95.69;99963.57;108448;1261;71599;-73
2023/03/11 07:51:39;;;;;;;5.10;2.10;;;;;;;0.59;95.44;99974.77;107249;1259;61285;-73
2023/03/11 07:54:07;;;;;;;5.10;2.30;;;;;;;0.63;94.49;99979.53;107596;1259;59691;-74
2023/03/11 07:56:35;;;;;;;6.30;2.50;;;;;;;0.69;94.45;99988.78;108622;1259;73511;-73
2023/03/11 07:59:04;;;;;;;8.10;3.10;;;;;;;0.72;94.13;99995.48;108553;1259;71066;-73
2023/03/11 08:01:40;;;;;;;8.50;2.20;;;;;;;0.72;93.66;99999.09;108332;1259;73749;-73
2023/03/11 08:04:09;;;;;;;7.80;2.40;;;;;;;0.79;93.45;100009.17;107702;1259;61266;-73
2023/03/11 08:06:41;;;;;;;5.40;2.20;;;;;;;0.78;93.31;100011.34;106811;1259;60431;-74
2023/03/11 08:09:14;;;;;;;4.70;2.10;;;;;;;0.90;93.18;100015.40;106522;1261;74385;-73
2023/03/11 08:11:42;;;;;;;5.10;1.60;;;;;;;1.03;92.66;100020.23;106757;1259;69813;-73
2023/03/11 08:14:09;;;;;;;5.90;1.70;;;;;;;1.05;91.83;100021.80;106703;1259;72344;-74
2023/03/11 08:16:39;;;;;;;6.40;1.90;;;;;;;1.06;91.48;100018.70;106913;1260;61262;-73
2023/03/11 08:19:09;;;;;;;7.30;3.00;;;;;;;1.04;91.42;100023.10;106541;1265;61222;-73
2023/03/11 08:21:39;;;;;;;9.20;4.00;;;;;;;1.04;91.13;100025.45;106446;1266;74513;-75
2023/03/11 08:24:06;;;;;;;5.40;2.60;;;;;;;0.88;90.70;100032.27;106731;1259;71378;-74
2023/03/11 08:26:33;;;;;;;5.80;2.70;;;;;;;0.87;91.13;100035.46;106562;1259;72519;-73
2023/03/11 08:29:00;;;;;;;5.10;2.70;;;;;;;0.87;91.31;100040.73;106783;1259;61358;-73
2023/03/11 08:31:30;;;;;;;4.90;2.00;;;;;;;0.90;91.28;100049.63;106578;1259;61327;-74
2023/03/11 08:34:00;;;;;;;6.70;2.60;;;;;;;0.96;90.92;100044.83;106791;1259;76427;-74
2023/03/11 08:36:27;;;;;;;5.10;2.50;;;;;;;1.02;90.65;100048.63;106293;1268;72226;-74
2023/03/11 08:38:54;;;;;;;7.10;2.50;;;;;;;1.09;90.63;100053.11;106401;1259;71425;-76
2023/03/11 08:41:24;;;;;;;7.90;2.60;;;;;;;1.15;90.30;100053.81;106239;1260;62434;-75
2023/03/11 08:43:53;;;;;;;5.10;2.00;;;;;;;1.21;89.93;100060.48;106694;1259;61176;-75
2023/03/11 08:46:30;;;;;;;5.90;2.00;;;;;;;1.32;90.20;100063.70;106697;1261;72900;-74
2023/03/11 08:48:58;;;;;;;5.80;1.80;;;;;;;1.38;89.36;100067.17;105914;1261;554020;-76
2023/03/11 08:51:28;;;;;;;10.80;4.50;;;;;;;1.46;89.22;100075.92;106354;1259;71035;-75
2023/03/11 08:53:56;;;;;;;11.70;3.80;;;;;;;1.47;88.51;100078.51;106588;1261;61918;-75
2023/03/11 08:56:23;;;;;;;37.50;13.50;;;;;;;1.47;88.57;100080.89;105997;1259;61169;-76
2023/03/11 08:58:53;;;;;;;41.40;17.30;;;;;;;1.51;88.07;100094.11;106271;1263;75617;-74
2023/03/11 09:01:22;;;;;;;49.60;22.10;;;;;;;1.54;88.09;100095.11;106510;1259;71076;-74
2023/03/11 09:03:52;;;;;;;26.00;11.80;;;;;;;1.66;88.15;100100.16;106477;1259;72706;-75
2023/03/11 09:06:23;;;;;;;22.50;11.00;;;;;;;1.69;87.67;100101.70;106565;1262;61204;-75
2023/03/11 09:08:50;;;;;;;32.50;16.30;;;;;;;1.76;87.56;100100.73;106611;1259;61820;-76
2023/03/11 09:11:18;;;;;;;39.70;21.50;;;;;;;1.85;86.71;100101.67;106497;1259;73178;-75
2023/03/11 09:13:44;;;;;;;25.40;12.60;;;;;;;1.96;86.69;100106.50;106523;1259;68970;-75
2023/03/11 09:16:14;;;;;;;27.10;14.40;;;;;;;1.98;85.64;100112.88;106408;1259;72946;-76
2023/03/11 09:18:41;;;;;;;13.10;5.80;;;;;;;2.00;85.49;100116.54;106570;1259;61855;-74
2023/03/11 09:21:08;;;;;;;7.90;3.30;;;;;;;2.09;85.35;100121.71;106213;1259;61499;-74
2023/03/11 09:23:36;;;;;;;5.20;2.30;;;;;;;2.14;84.66;100122.55;106907;1267;76030;-74
2023/03/11 09:26:03;;;;;;;7.00;2.60;;;;;;;2.26;84.30;100121.96;106263;1259;69145;-75
2023/03/11 09:28:36;;;;;;;6.20;2.20;;;;;;;2.51;85.19;100117.67;106560;1267;71215;-78
2023/03/11 09:31:03;;;;;;;5.70;2.40;;;;;;;2.47;82.60;100126.45;106787;1261;59903;-80
2023/03/11 09:33:44;;;;;;;4.30;2.10;;;;;;;2.48;82.89;100126.89;107041;1259;61212;-78
2023/03/11 09:36:17;;;;;;;7.30;2.10;;;;;;;2.45;82.56;100126.29;106826;1259;72775;-81
2023/03/11 09:38:45;;;;;;;7.10;2.00;;;;;;;2.48;82.65;100129.98;106629;1260;71291;-78
2023/03/11 09:41:29;;;;;;;6.50;2.70;;;;;;;2.59;82.87;100129.35;107089;1259;70541;-75
2023/03/11 09:44:04;;;;;;;5.80;2.20;;;;;;;2.73;82.22;100127.06;106729;1264;61247;-75
2023/03/11 09:46:47;;;;;;;6.60;2.30;;;;;;;2.80;81.91;100136.72;106621;1268;61128;-74
2023/03/11 09:50:02;;;;;;;5.50;1.60;;;;;;;2.80;81.85;100145.62;106565;1259;74700;-77
2023/03/11 09:53:17;;;;;;;7.20;2.40;;;;;;;2.77;80.80;100150.94;106495;1259;71215;-76
2023/03/11 09:55:59;;;;;;;6.20;2.80;;;;;;;2.83;81.25;100150.09;106644;1259;71004;-76
2023/03/11 09:58:44;;;;;;;6.40;2.60;;;;;;;2.96;81.36;100150.17;106812;1261;61359;-77
2023/03/11 10:01:25;;;;;;;9.20;2.50;;;;;;;3.12;81.89;100146.55;106602;1259;61376;-76
2023/03/11 10:03:55;;;;;;;5.40;2.00;;;;;;;3.22;80.79;100146.85;106457;1264;74767;-79
2023/03/11 10:06:24;;;;;;;6.60;2.10;;;;;;;3.20;80.26;100154.02;106859;1259;70164;-79
2023/03/11 10:08:57;;;;;;;6.10;2.10;;;;;;;3.33;80.32;100153.39;106940;1259;72391;-79
2023/03/11 10:11:33;;;;;;;6.00;2.20;;;;;;;3.39;79.67;100156.20;106699;1259;61721;-78
2023/03/11 10:14:31;;;;;;;6.10;1.90;;;;;;;3.47;79.61;100160.17;106539;1259;61253;-80
2023/03/11 10:17:16;;;;;;;5.90;1.80;;;;;;;3.60;79.01;100164.07;107245;1259;73854;-80
2023/03/11 10:20:03;;;;;;;4.60;1.90;;;;;;;3.68;78.35;100160.83;107382;1259;69797;-79
2023/03/11 10:22:40;;;;;;;5.10;1.80;;;;;;;3.91;78.22;100162.19;106947;1259;71171;-80
2023/03/11 10:25:15;;;;;;;4.80;2.30;;;;;;;4.00;77.73;100162.58;107117;1263;61325;-80
2023/03/11 10:27:53;;;;;;;5.20;1.90;;;;;;;4.04;77.13;100167.89;107184;1259;60065;-79
2023/03/11 10:30:27;;;;;;;5.90;1.50;;;;;;;4.22;76.96;100173.09;106789;1260;73177;-79
2023/03/11 10:33:09;;;;;;;5.40;2.40;;;;;;;4.50;75.77;100175.43;106907;1264;70904;-79
2023/03/11 10:35:40;;;;;;;6.00;1.70;;;;;;;4.63;74.96;100174.40;106611;1259;72821;-77
2023/03/11 10:38:11;;;;;;;5.70;1.50;;;;;;;4.54;74.97;100171.75;106881;1264;61341;-77
2023/03/11 10:40:45;;;;;;;13.20;5.90;;;;;;;4.53;75.02;100174.02;106697;1259;61953;-75
2023/03/11 10:43:17;;;;;;;40.70;18.40;;;;;;;4.54;73.87;100178.11;106555;1259;74372;-75
2023/03/11 10:45:47;;;;;;;9.70;4.40;;;;;;;4.42;73.65;100172.00;107174;1266;71235;-76
2023/03/11 10:48:17;;;;;;;18.60;9.20;;;;;;;4.29;73.51;100172.27;106594;1262;73074;-76
2023/03/11 10:51:00;;;;;;;10.70;4.90;;;;;;;4.41;75.05;100176.45;106951;1267;61254;-78
2023/03/11 10:53:27;;;;;;;7.60;2.40;;;;;;;4.70;75.36;100179.49;106830;1259;61167;-78
2023/03/11 10:55:57;;;;;;;6.30;2.70;;;;;;;4.74;74.44;100184.83;107047;1265;73148;-79
2023/03/11 10:58:27;;;;;;;6.50;1.80;;;;;;;4.95;73.75;100182.20;107307;1259;71786;-78
2023/03/11 11:01:07;;;;;;;10.30;4.80;;;;;;;5.12;72.56;100184.17;106916;1259;71510;-79
2023/03/11 11:03:35;;;;;;;6.90;2.20;;;;;;;5.25;71.27;100186.91;106987;1266;61666;-79
2023/03/11 11:06:05;;;;;;;6.50;1.90;;;;;;;5.37;70.36;100191.14;107117;1259;61144;-80
2023/03/11 11:08:33;;;;;;;4.30;1.40;;;;;;;5.26;68.74;100198.48;107516;1259;73523;-83
2023/03/11 11:11:01;;;;;;;8.00;2.00;;;;;;;5.19;68.67;100196.98;107367;1259;70323;-80
2023/03/11 11:13:33;;;;;;;3.00;1.40;;;;;;;5.28;70.19;100197.45;106722;1266;70618;-78
2023/03/11 11:16:01;;;;;;;4.80;1.40;;;;;;;5.23;68.36;100202.15;107133;1264;61288;-79
2023/03/11 11:18:47;;;;;;;5.40;2.30;;;;;;;5.10;68.08;100204.30;106920;1259;61613;-78
2023/03/11 11:21:27;;;;;;;22.30;13.70;;;;;;;4.90;67.49;100211.52;106725;1267;73484;-77
2023/03/11 11:24:08;;;;;;;15.20;7.60;;;;;;;4.80;68.20;100208.43;106689;1259;69972;-78
2023/03/11 11:26:35;;;;;;;11.10;5.40;;;;;;;4.85;68.56;100211.86;106781;1260;72679;-79
2023/03/11 11:29:09;;;;;;;9.50;5.40;;;;;;;4.88;68.25;100207.69;106740;1266;61351;-79
2023/03/11 11:31:41;;;;;;;7.00;3.10;;;;;;;4.86;67.77;100208.36;107151;1259;61769;-79
2023/03/11 11:34:28;;;;;;;4.10;1.70;;;;;;;4.87;67.64;100201.30;107290;1259;72929;-79
2023/03/11 11:36:58;;;;;;;6.00;2.20;;;;;;;4.91;67.49;100203.14;107837;1266;71649;-77
2023/03/11 11:39:27;;;;;;;39.10;20.40;;;;;;;4.94;66.62;100209.52;108773;1264;71742;-77